createdAt,value
2023-01-02T00:02:05.479Z,-0.50
2023-01-02T00:04:32.432Z,-0.60
2023-01-02T00:07:01.540Z,-0.50
2023-01-02T00:09:30.648Z,-0.50
2023-01-02T00:11:57.561Z,-0.50
2023-01-02T00:14:25.899Z,-0.40
2023-01-02T00:16:56.737Z,-0.30
2023-01-02T00:19:25.093Z,-0.30
2023-01-02T00:21:52.667Z,-0.30
2023-01-02T00:24:20.971Z,-0.30
2023-01-02T00:26:49.512Z,-0.30
2023-01-02T00:29:18.485Z,-0.40
2023-01-02T00:31:46.911Z,-0.40
2023-01-02T00:34:15.399Z,-0.40
2023-01-02T00:36:42.968Z,-0.40
2023-01-02T00:39:10.559Z,-0.40
2023-01-02T00:41:38.308Z,-0.40
2023-01-02T00:44:06.696Z,-0.30
2023-01-02T00:46:35.445Z,-0.40
2023-01-02T00:49:03.234Z,-0.40
2023-01-02T00:51:30.890Z,-0.30
2023-01-02T00:54:00.236Z,-0.30
2023-01-02T00:56:27.188Z,-0.30
2023-01-02T00:58:54.887Z,-0.30
2023-01-02T01:01:22.831Z,-0.30
2023-01-02T01:03:51.376Z,-0.30
2023-01-02T01:06:19.020Z,-0.20
2023-01-02T01:08:48.079Z,-0.20
2023-01-02T01:11:17.768Z,-0.10
2023-01-02T01:13:46.283Z,0.00
2023-01-02T01:16:18.499Z,0.00
2023-01-02T01:18:49.154Z,0.00
2023-01-02T01:21:19.415Z,0.10
2023-01-02T01:23:53.029Z,0.20
2023-01-02T01:26:22.243Z,0.30
2023-01-02T01:28:55.634Z,0.40
2023-01-02T01:31:25.653Z,0.40
2023-01-02T01:33:54.809Z,0.40
2023-01-02T01:36:24.512Z,0.40
2023-01-02T01:38:51.730Z,0.50
2023-01-02T01:41:23.079Z,0.50
2023-01-02T01:43:54.066Z,0.60
2023-01-02T01:46:33.667Z,0.70
2023-01-02T01:49:19.757Z,0.70
2023-01-02T01:51:55.838Z,0.80
2023-01-02T01:54:39.507Z,0.80
2023-01-02T01:57:19.412Z,0.90
2023-01-02T01:59:49.015Z,1.00
2023-01-02T02:02:17.531Z,1.00
2023-01-02T02:04:46.135Z,1.10
2023-01-02T02:07:15.471Z,1.20
2023-01-02T02:09:51.356Z,1.30
2023-01-02T02:12:24.321Z,1.30
2023-01-02T02:14:54.713Z,1.40
2023-01-02T02:17:31.223Z,1.40
2023-01-02T02:20:01.767Z,1.50
2023-01-02T02:22:48.622Z,1.50
2023-01-02T02:25:19.703Z,1.50
2023-01-02T02:27:56.250Z,1.60
2023-01-02T02:30:45.278Z,1.60
2023-01-02T02:33:20.034Z,1.70
2023-01-02T02:36:01.710Z,1.80
2023-01-02T02:38:32.873Z,1.80
2023-01-02T02:41:44.122Z,2.00
2023-01-02T02:44:22.102Z,2.10
2023-01-02T02:46:57.063Z,2.10
2023-01-02T02:49:49.895Z,2.20
2023-01-02T02:52:24.235Z,2.30
2023-01-02T02:55:14.259Z,2.30
2023-01-02T02:57:44.642Z,2.40
2023-01-02T03:00:17.410Z,2.40
2023-01-02T03:02:45.417Z,2.40
2023-01-02T03:05:25.660Z,2.50
2023-01-02T03:08:19.331Z,2.50
2023-01-02T03:10:52.240Z,2.50
2023-01-02T03:13:44.227Z,2.60
2023-01-02T03:16:35.790Z,2.60
2023-01-02T03:19:29.600Z,2.70
2023-01-02T03:22:08.636Z,2.70
2023-01-02T03:24:39.221Z,2.80
2023-01-02T03:27:12.874Z,2.80
2023-01-02T03:29:46.543Z,3.00
2023-01-02T03:32:27.764Z,3.00
2023-01-02T03:35:01.271Z,3.10
2023-01-02T03:37:34.557Z,3.10
2023-01-02T03:40:07.079Z,3.10
2023-01-02T03:43:10.261Z,3.20
2023-01-02T03:45:48.949Z,3.20
2023-01-02T03:48:38.987Z,3.30
2023-01-02T03:51:07.261Z,3.40
2023-01-02T03:53:40.004Z,3.40
2023-01-02T03:56:32.844Z,3.50
2023-01-02T03:59:31.595Z,3.50
2023-01-02T04:02:01.465Z,3.50
2023-01-02T04:04:50.893Z,3.60
2023-01-02T04:07:28.888Z,3.60
2023-01-02T04:10:00.429Z,3.60
2023-01-02T04:12:30.900Z,3.70
2023-01-02T04:15:05.100Z,3.70
2023-01-02T04:17:39.087Z,3.70
2023-01-02T04:20:10.857Z,3.70
2023-01-02T04:22:50.301Z,3.80
2023-01-02T04:25:20.174Z,3.80
2023-01-02T04:28:01.347Z,3.80
2023-01-02T04:30:35.221Z,3.80
2023-01-02T04:33:07.077Z,3.90
2023-01-02T04:35:35.815Z,3.90
2023-01-02T04:38:11.949Z,3.90
2023-01-02T04:40:39.695Z,4.00
2023-01-02T04:43:20.353Z,4.00
2023-01-02T04:45:49.648Z,4.00
2023-01-02T04:48:17.707Z,4.00
2023-01-02T04:50:46.285Z,4.00
2023-01-02T04:53:13.253Z,4.10
2023-01-02T04:55:44.076Z,4.10
2023-01-02T04:58:12.531Z,4.10
2023-01-02T05:00:41.269Z,4.10
2023-01-02T05:03:09.049Z,4.10
2023-01-02T05:05:36.675Z,4.10
2023-01-02T05:08:04.602Z,4.10
2023-01-02T05:10:32.193Z,4.20
2023-01-02T05:13:00.923Z,4.10
2023-01-02T05:15:28.600Z,4.10
2023-01-02T05:17:57.584Z,4.20
2023-01-02T05:20:25.906Z,4.20
2023-01-02T05:23:11.984Z,4.20
2023-01-02T05:25:39.562Z,4.20
2023-01-02T05:28:06.621Z,4.20
2023-01-02T05:30:34.185Z,4.30
2023-01-02T05:33:03.291Z,4.30
2023-01-02T05:35:33.000Z,4.20
2023-01-02T05:38:02.432Z,4.30
2023-01-02T05:40:30.833Z,4.30
2023-01-02T05:42:59.227Z,4.30
2023-01-02T05:45:27.067Z,4.30
2023-01-02T05:47:54.762Z,4.30
2023-01-02T05:50:22.721Z,4.30
2023-01-02T05:52:49.667Z,4.30
2023-01-02T05:55:17.555Z,4.30
2023-01-02T05:57:45.372Z,4.30
2023-01-02T06:00:12.979Z,4.30
2023-01-02T06:02:47.534Z,4.40
2023-01-02T06:05:16.115Z,4.40
2023-01-02T06:07:43.765Z,4.40
2023-01-02T06:10:11.525Z,4.40
2023-01-02T06:12:39.097Z,4.40
2023-01-02T06:15:06.408Z,4.40
2023-01-02T06:17:34.453Z,4.40
2023-01-02T06:20:02.028Z,4.40
2023-01-02T06:22:30.387Z,4.40
2023-01-02T06:24:58.147Z,4.50
2023-01-02T06:27:26.442Z,4.40
2023-01-02T06:29:54.742Z,4.50
2023-01-02T06:32:24.393Z,4.50
2023-01-02T06:34:51.304Z,4.50
2023-01-02T06:37:18.911Z,4.50
2023-01-02T06:39:46.439Z,4.50
2023-01-02T06:42:13.980Z,4.50
2023-01-02T06:44:41.582Z,4.50
2023-01-02T06:47:08.522Z,4.50
2023-01-02T06:49:36.776Z,4.50
2023-01-02T06:52:05.318Z,4.50
2023-01-02T06:54:33.290Z,4.50
2023-01-02T06:57:01.699Z,4.60
2023-01-02T06:59:29.768Z,4.60
2023-01-02T07:01:57.435Z,4.60
2023-01-02T07:04:24.415Z,4.60
2023-01-02T07:06:53.074Z,4.60
2023-01-02T07:09:20.733Z,4.60
2023-01-02T07:11:48.334Z,4.70
2023-01-02T07:14:16.965Z,4.70
2023-01-02T07:16:44.705Z,4.70
2023-01-02T07:19:12.350Z,4.70
2023-01-02T07:21:41.199Z,4.70
2023-01-02T07:24:14.198Z,4.70
2023-01-02T07:26:42.935Z,4.80
2023-01-02T07:29:11.367Z,4.70
2023-01-02T07:31:39.889Z,4.80
2023-01-02T07:34:08.379Z,4.80
2023-01-02T07:36:37.910Z,4.80
2023-01-02T07:39:06.213Z,4.80
2023-01-02T07:41:34.907Z,4.90
2023-01-02T07:44:03.387Z,4.90
2023-01-02T07:46:30.971Z,4.90
2023-01-02T07:48:59.801Z,4.90
2023-01-02T07:51:28.378Z,4.90
2023-01-02T07:53:56.340Z,4.90
2023-01-02T07:56:25.727Z,4.90
2023-01-02T07:58:53.406Z,4.90
2023-01-02T08:01:22.716Z,5.00
2023-01-02T08:03:51.261Z,4.90
2023-01-02T08:06:20.427Z,4.90
2023-01-02T08:08:48.073Z,5.00
2023-01-02T08:11:19.963Z,5.00
2023-01-02T08:13:47.824Z,5.00
2023-01-02T08:16:20.891Z,5.00
2023-01-02T08:18:52.196Z,5.00
2023-01-02T08:21:19.922Z,5.00
2023-01-02T08:23:48.223Z,5.10
2023-01-02T08:26:17.109Z,5.10
2023-01-02T08:28:45.592Z,5.10
2023-01-02T08:31:17.535Z,5.10
2023-01-02T08:33:46.192Z,5.10
2023-01-02T08:36:14.959Z,5.10
2023-01-02T08:38:44.814Z,5.20
2023-01-02T08:41:15.344Z,5.20
2023-01-02T08:43:43.849Z,5.20
2023-01-02T08:46:13.095Z,5.20
2023-01-02T08:48:41.931Z,5.30
2023-01-02T08:51:12.675Z,5.20
2023-01-02T08:53:44.010Z,5.30
2023-01-02T08:56:24.151Z,5.30
2023-01-02T08:58:58.111Z,5.40
2023-01-02T09:01:29.532Z,5.30
2023-01-02T09:03:59.771Z,5.40
2023-01-02T09:06:31.206Z,5.40
2023-01-02T09:09:02.219Z,5.40
2023-01-02T09:11:37.883Z,5.40
2023-01-02T09:14:06.111Z,5.40
2023-01-02T09:16:35.324Z,5.50
2023-01-02T09:19:03.367Z,5.50
2023-01-02T09:21:30.998Z,5.50
2023-01-02T09:23:58.977Z,5.50
2023-01-02T09:26:26.276Z,5.50
2023-01-02T09:28:54.796Z,5.50
2023-01-02T09:31:23.463Z,5.60
2023-01-02T09:33:54.199Z,5.70
2023-01-02T09:36:25.294Z,5.70
2023-01-02T09:38:55.435Z,5.70
2023-01-02T09:41:42.403Z,5.70
2023-01-02T09:44:30.420Z,5.70
2023-01-02T09:47:04.736Z,5.70
2023-01-02T09:49:52.867Z,5.70
2023-01-02T09:52:35.483Z,5.70
2023-01-02T09:55:18.743Z,5.70
2023-01-02T09:58:00.388Z,5.70
2023-01-02T10:00:35.546Z,5.70
2023-01-02T10:03:18.339Z,5.70
2023-01-02T10:06:01.579Z,5.70
2023-01-02T10:08:33.333Z,5.70
2023-01-02T10:11:11.248Z,5.80
2023-01-02T10:14:17.934Z,5.80
2023-01-02T10:16:44.719Z,5.80
2023-01-02T10:19:21.849Z,5.80
2023-01-02T10:21:52.292Z,5.80
2023-01-02T10:24:35.127Z,5.80
2023-01-02T10:27:06.046Z,5.80
2023-01-02T10:29:40.064Z,5.80
2023-01-02T10:32:15.355Z,5.90
2023-01-02T10:35:06.640Z,5.90
2023-01-02T10:37:36.519Z,5.90
2023-01-02T10:40:05.439Z,5.90
2023-01-02T10:42:34.264Z,5.90
2023-01-02T10:45:04.439Z,5.90
2023-01-02T10:47:38.161Z,5.90
2023-01-02T10:50:15.347Z,6.00
2023-01-02T10:52:52.195Z,5.90
2023-01-02T10:55:43.627Z,6.00
2023-01-02T10:58:27.105Z,6.00
2023-01-02T11:01:18.621Z,6.00
2023-01-02T11:03:49.066Z,6.00
2023-01-02T11:06:38.970Z,6.00
2023-01-02T11:09:21.502Z,6.00
2023-01-02T11:11:52.809Z,6.00
2023-01-02T11:14:32.959Z,6.00
2023-01-02T11:17:16.804Z,6.00
2023-01-02T11:19:47.538Z,6.20
2023-01-02T11:22:19.436Z,6.20
2023-01-02T11:25:01.446Z,6.30
2023-01-02T11:27:36.251Z,6.40
2023-01-02T11:30:07.459Z,6.40
2023-01-02T11:32:41.130Z,6.50
2023-01-02T11:35:39.509Z,6.60
2023-01-02T11:38:42.108Z,6.70
2023-01-02T11:42:09.299Z,6.70
2023-01-02T11:44:55.949Z,6.80
2023-01-02T11:47:42.609Z,6.90
2023-01-02T11:50:27.625Z,7.00
2023-01-02T11:53:13.660Z,7.10
2023-01-02T11:55:51.665Z,7.10
2023-01-02T11:58:53.474Z,7.00
2023-01-02T12:01:38.324Z,6.90
2023-01-02T12:04:07.508Z,7.00
2023-01-02T12:06:39.704Z,6.90
2023-01-02T12:09:12.397Z,7.00
2023-01-02T12:12:02.047Z,7.00
2023-01-02T12:14:54.309Z,7.00
2023-01-02T12:17:33.339Z,6.90
2023-01-02T12:20:32.711Z,6.90
2023-01-02T12:23:25.840Z,6.80
2023-01-02T12:26:09.098Z,6.80
2023-01-02T12:29:09.795Z,6.80
2023-01-02T12:32:06.994Z,6.80
2023-01-02T12:34:55.832Z,6.70
2023-01-02T12:37:27.784Z,6.70
2023-01-02T12:40:00.477Z,6.60
2023-01-02T12:42:57.494Z,6.60
2023-01-02T12:45:43.971Z,6.60
2023-01-02T12:48:38.720Z,6.60
2023-01-02T12:51:26.116Z,6.60
2023-01-02T12:54:20.364Z,6.60
2023-01-02T12:57:05.137Z,6.60
2023-01-02T12:59:57.203Z,6.60
2023-01-02T13:02:52.831Z,6.50
2023-01-02T13:05:26.291Z,6.50
2023-01-02T13:07:59.539Z,6.50
2023-01-02T13:10:29.304Z,6.50
2023-01-02T13:13:00.750Z,6.40
2023-01-02T13:15:33.845Z,6.40
2023-01-02T13:18:17.481Z,6.40
2023-01-02T13:20:52.832Z,6.40
2023-01-02T13:23:40.148Z,6.40
2023-01-02T13:26:12.275Z,6.40
2023-01-02T13:29:06.961Z,6.40
2023-01-02T13:31:48.840Z,6.40
2023-01-02T13:34:48.427Z,6.40
2023-01-02T13:37:20.033Z,6.30
2023-01-02T13:39:53.387Z,6.40
2023-01-02T13:42:46.982Z,6.40
2023-01-02T13:45:21.343Z,6.40
2023-01-02T13:47:55.550Z,6.30
2023-01-02T13:50:40.811Z,6.40
2023-01-02T13:53:09.819Z,6.40
2023-01-02T13:55:40.830Z,6.40
2023-01-02T13:58:20.507Z,6.30
2023-01-02T14:00:55.749Z,6.30
2023-01-02T14:03:24.205Z,6.40
2023-01-02T14:05:58.609Z,6.40
2023-01-02T14:08:38.646Z,6.40
2023-01-02T14:11:13.484Z,6.40
2023-01-02T14:13:51.250Z,6.40
2023-01-02T14:16:22.445Z,6.40
2023-01-02T14:19:15.195Z,6.40
2023-01-02T14:21:58.707Z,6.40
2023-01-02T14:24:37.799Z,6.40
2023-01-02T14:27:33.139Z,6.40
2023-01-02T14:30:05.211Z,6.40
2023-01-02T14:32:46.699Z,6.40
2023-01-02T14:35:15.138Z,6.40
2023-01-02T14:37:52.175Z,6.40
2023-01-02T14:40:23.525Z,6.50
2023-01-02T14:43:31.214Z,6.40
2023-01-02T14:46:17.085Z,6.50
2023-01-02T14:48:54.866Z,6.50
2023-01-02T14:51:34.565Z,6.50
2023-01-02T14:54:19.725Z,6.50
2023-01-02T14:56:52.365Z,6.50
2023-01-02T14:59:38.331Z,6.50
2023-01-02T15:02:19.944Z,6.50
2023-01-02T15:05:06.243Z,6.50
2023-01-02T15:07:39.735Z,6.50
2023-01-02T15:10:16.885Z,6.50
2023-01-02T15:13:03.596Z,6.50
2023-01-02T15:15:42.305Z,6.50
2023-01-02T15:18:22.336Z,6.50
2023-01-02T15:21:04.196Z,6.50
2023-01-02T15:23:32.082Z,6.50
2023-01-02T15:26:32.712Z,6.50
2023-01-02T15:28:56.061Z,6.50
2023-01-02T15:31:24.652Z,6.50
2023-01-02T15:33:56.614Z,6.50
2023-01-02T15:36:38.115Z,6.60
2023-01-02T15:39:17.848Z,6.60
2023-01-02T15:41:52.045Z,6.50
2023-01-02T15:44:51.085Z,6.50
2023-01-02T15:47:27.346Z,6.50
2023-01-02T15:49:57.454Z,6.60
2023-01-02T15:52:30.881Z,6.50
2023-01-02T15:55:00.587Z,6.50
2023-01-02T15:57:33.793Z,6.50
2023-01-02T16:00:03.793Z,6.50
2023-01-02T16:02:42.645Z,6.50
2023-01-02T16:05:17.848Z,6.50
2023-01-02T16:07:58.103Z,6.50
2023-01-02T16:10:28.899Z,6.50
2023-01-02T16:13:01.398Z,6.50
2023-01-02T16:15:34.925Z,6.50
2023-01-02T16:18:04.217Z,6.50
2023-01-02T16:20:32.017Z,6.50
2023-01-02T16:23:05.516Z,6.40
2023-01-02T16:25:44.689Z,6.50
2023-01-02T16:28:36.323Z,6.50
2023-01-02T16:31:19.537Z,6.50
2023-01-02T16:33:48.976Z,6.50
2023-01-02T16:36:17.363Z,6.50
2023-01-02T16:38:57.146Z,6.50
2023-01-02T16:41:34.617Z,6.50
2023-01-02T16:44:04.318Z,6.60
2023-01-02T16:46:33.982Z,6.50
2023-01-02T16:49:05.571Z,6.60
2023-01-02T16:51:34.155Z,6.60
2023-01-02T16:54:01.791Z,6.50
2023-01-02T16:56:30.711Z,6.60
2023-01-02T16:58:59.170Z,6.60
2023-01-02T17:01:27.272Z,6.60
2023-01-02T17:03:54.306Z,6.50
2023-01-02T17:06:24.327Z,6.50
2023-01-02T17:08:52.718Z,6.50
2023-01-02T17:11:23.730Z,6.50
2023-01-02T17:13:52.231Z,6.50
2023-01-02T17:16:19.980Z,6.50
2023-01-02T17:18:47.578Z,6.60
2023-01-02T17:21:16.075Z,6.60
2023-01-02T17:23:44.498Z,6.50
2023-01-02T17:26:14.239Z,6.60
2023-01-02T17:28:42.533Z,6.60
2023-01-02T17:31:14.351Z,6.60
2023-01-02T17:33:41.341Z,6.60
2023-01-02T17:36:09.805Z,6.50
2023-01-02T17:38:39.031Z,6.50
2023-01-02T17:41:05.923Z,6.40
2023-01-02T17:43:35.068Z,6.50
2023-01-02T17:46:30.836Z,6.40
2023-01-02T17:48:56.751Z,6.40
2023-01-02T17:51:26.563Z,6.40
2023-01-02T17:53:54.912Z,6.40
2023-01-02T17:56:24.597Z,6.40
2023-01-02T17:58:52.232Z,6.40
2023-01-02T18:01:21.700Z,6.40
2023-01-02T18:03:50.143Z,6.30
2023-01-02T18:06:20.592Z,6.30
2023-01-02T18:08:49.136Z,6.30
2023-01-02T18:11:18.097Z,6.30
2023-01-02T18:13:49.730Z,6.30
2023-01-02T18:16:24.184Z,6.30
2023-01-02T18:18:53.381Z,6.30
2023-01-02T18:21:25.912Z,6.30
2023-01-02T18:23:59.270Z,6.30
2023-01-02T18:26:31.388Z,6.20
2023-01-02T18:29:09.333Z,6.30
2023-01-02T18:31:43.135Z,6.30
2023-01-02T18:34:45.768Z,6.40
2023-01-02T18:37:02.660Z,6.30
2023-01-02T18:39:42.619Z,6.30
2023-01-02T18:42:14.460Z,6.30
2023-01-02T18:44:42.404Z,6.30
2023-01-02T18:47:29.094Z,6.40
2023-01-02T18:50:27.750Z,6.40
2023-01-02T18:52:54.648Z,6.40
2023-01-02T18:55:34.063Z,6.40
2023-01-02T18:58:23.396Z,6.40
2023-01-02T19:00:53.110Z,6.40
2023-01-02T19:03:28.528Z,6.40
2023-01-02T19:05:56.560Z,6.40
2023-01-02T19:08:34.007Z,6.40
2023-01-02T19:11:20.943Z,6.50
2023-01-02T19:13:51.423Z,6.40
2023-01-02T19:16:22.145Z,6.50
2023-01-02T19:18:54.975Z,6.40
2023-01-02T19:21:31.675Z,6.30
2023-01-02T19:24:05.530Z,6.30
2023-01-02T19:26:51.873Z,6.30
2023-01-02T19:29:33.002Z,6.30
2023-01-02T19:32:28.564Z,6.40
2023-01-02T19:35:16.380Z,6.40
2023-01-02T19:37:46.075Z,6.40
2023-01-02T19:40:20.615Z,6.40
2023-01-02T19:42:51.342Z,6.40
2023-01-02T19:45:19.025Z,6.40
2023-01-02T19:47:49.301Z,6.40
2023-01-02T19:50:23.268Z,6.40
2023-01-02T19:52:53.450Z,6.40
2023-01-02T19:55:22.407Z,6.30
2023-01-02T19:57:51.459Z,6.30
2023-01-02T20:00:19.529Z,6.40
2023-01-02T20:02:52.310Z,6.40
2023-01-02T20:05:22.494Z,6.30
2023-01-02T20:07:52.766Z,6.30
2023-01-02T20:10:22.050Z,6.30
2023-01-02T20:12:50.231Z,6.30
2023-01-02T20:15:23.893Z,6.30
2023-01-02T20:17:53.761Z,6.30
2023-01-02T20:20:24.380Z,6.30
2023-01-02T20:22:54.740Z,6.30
2023-01-02T20:25:26.165Z,6.20
2023-01-02T20:27:56.086Z,6.20
2023-01-02T20:30:25.211Z,6.20
2023-01-02T20:32:53.702Z,6.20
2023-01-02T20:35:22.291Z,6.20
2023-01-02T20:37:51.210Z,6.20
2023-01-02T20:40:19.655Z,6.10
2023-01-02T20:42:48.804Z,6.20
2023-01-02T20:45:17.889Z,6.10
2023-01-02T20:47:47.041Z,6.10
2023-01-02T20:50:14.738Z,6.10
2023-01-02T20:52:43.046Z,6.10
2023-01-02T20:55:11.140Z,6.10
2023-01-02T20:57:38.773Z,6.10
2023-01-02T21:00:10.575Z,6.10
2023-01-02T21:02:38.545Z,6.10
2023-01-02T21:05:06.545Z,6.10
2023-01-02T21:07:35.567Z,6.10
2023-01-02T21:10:03.676Z,6.10
2023-01-02T21:12:50.128Z,6.10
2023-01-02T21:15:35.571Z,6.00
2023-01-02T21:18:03.350Z,6.00
2023-01-02T21:20:31.665Z,6.00
2023-01-02T21:23:00.363Z,5.90
2023-01-02T21:25:28.702Z,5.80
2023-01-02T21:27:56.988Z,5.80
2023-01-02T21:30:24.280Z,5.80
2023-01-02T21:32:52.944Z,5.80
2023-01-02T21:35:20.575Z,5.80
2023-01-02T21:37:48.198Z,5.70
2023-01-02T21:40:17.952Z,5.70
2023-01-02T21:42:45.537Z,5.70
2023-01-02T21:45:12.849Z,5.60
2023-01-02T21:47:41.307Z,5.60
2023-01-02T21:50:10.170Z,5.50
2023-01-02T21:52:37.965Z,5.50
2023-01-02T21:55:05.627Z,5.50
2023-01-02T21:58:03.184Z,5.50
2023-01-02T22:00:25.634Z,5.40
2023-01-02T22:02:54.537Z,5.30
2023-01-02T22:05:23.032Z,5.30
2023-01-02T22:07:49.956Z,5.20
2023-01-02T22:10:17.837Z,5.20
2023-01-02T22:12:44.747Z,5.10
2023-01-02T22:15:12.960Z,5.10
2023-01-02T22:17:40.210Z,5.00
2023-01-02T22:20:08.795Z,4.90
2023-01-02T22:22:36.540Z,4.90
2023-01-02T22:25:03.606Z,4.80
2023-01-02T22:27:31.354Z,4.80
2023-01-02T22:32:49.670Z,4.60
2023-01-02T22:35:17.558Z,4.60
2023-01-02T22:37:44.602Z,4.50
2023-01-02T22:40:12.754Z,4.40
2023-01-02T22:43:04.990Z,4.40
2023-01-02T22:45:53.044Z,4.30
2023-01-02T22:48:31.718Z,4.20
2023-01-02T22:51:01.897Z,4.10
2023-01-02T22:53:33.287Z,4.10
2023-01-02T22:56:01.721Z,4.00
2023-01-02T22:58:30.647Z,3.90
2023-01-02T23:01:01.860Z,3.90
2023-01-02T23:03:33.339Z,3.80
2023-01-02T23:06:02.586Z,3.80
2023-01-02T23:08:29.541Z,3.80
2023-01-02T23:10:56.619Z,3.70
2023-01-02T23:13:24.230Z,3.70
2023-01-02T23:16:10.105Z,3.60
2023-01-02T23:18:57.339Z,3.60
2023-01-02T23:21:28.638Z,3.50
2023-01-02T23:23:56.496Z,3.50
2023-01-02T23:26:27.278Z,3.40
2023-01-02T23:29:06.616Z,3.40
2023-01-02T23:31:36.288Z,3.40
2023-01-02T23:34:03.383Z,3.40
2023-01-02T23:36:31.287Z,3.40
2023-01-02T23:38:59.066Z,3.30
2023-01-02T23:41:27.578Z,3.40
2023-01-02T23:43:55.826Z,3.30
2023-01-02T23:46:24.640Z,3.30
2023-01-02T23:48:52.267Z,3.30
2023-01-02T23:51:20.068Z,3.30
2023-01-02T23:53:47.027Z,3.20
2023-01-02T23:56:21.493Z,3.20
2023-01-02T23:58:51.095Z,3.20
